Time;durP1;ratioP1;P1;durP2;ratioP2;P2;SDS_P1;SDS_P2;PMS_P1;PMS_P2;Temp;Humidity;BMP_temperature;BMP_pressure;BME280_temperature;BME280_humidity;BME280_pressure;Samples;Min_cycle;Max_cycle;Signal;HPM_P1;HPM_P2
2022/04/04 00:00:53;;;;;;;;;;;4.20;92.10;;;;;;6251456;22;19907;-86
2022/04/04 00:03:21;;;;;;;;;;;4.20;92.10;;;;;;6250831;22;19910;-86
2022/04/04 00:05:49;;;;;;;;;;;4.20;92.10;;;;;;6250849;22;19903;-86
2022/04/04 00:08:17;;;;;;;;;;;4.20;92.10;;;;;;6277995;22;19904;-86
2022/04/04 00:10:44;;;;;;;;;;;4.20;92.20;;;;;;6225718;22;19919;-86
2022/04/04 00:13:20;;;;;;;;;;;4.20;92.10;;;;;;6251032;22;19907;-86
2022/04/04 00:15:45;;;;;;;;;;;4.20;92.10;;;;;;6227803;22;20237;-86
2022/04/04 00:18:11;;;;;;;;;;;4.20;92.10;;;;;;6251277;22;19914;-86
2022/04/04 00:20:37;;;;;;;;;;;4.20;92.10;;;;;;6251432;22;19907;-86
2022/04/04 00:23:05;;;;;;;;;;;4.20;92.10;;;;;;6251287;22;19903;-85
2022/04/04 00:25:34;;;;;;;;;;;4.20;92.10;;;;;;6251289;22;20277;-85
2022/04/04 00:28:02;;;;;;;;;;;4.20;92.10;;;;;;6251693;22;19903;-87
2022/04/04 00:30:27;;;;;;;;;;;4.20;92.10;;;;;;6251656;22;20324;-85
2022/04/04 00:32:58;;;;;;;;;;;4.20;92.10;;;;;;6252259;22;19939;-86
2022/04/04 00:35:24;;;;;;;;;;;4.10;92.00;;;;;;6248017;22;19898;-86
2022/04/04 00:37:49;;;;;;;;;;;4.20;92.00;;;;;;6278574;22;19911;-86
2022/04/04 00:40:17;;;;;;;;;;;4.20;92.00;;;;;;6277492;22;19907;-86
2022/04/04 00:42:43;;;;;;;;;;;4.10;91.90;;;;;;6277671;22;19899;-84
2022/04/04 00:45:11;;;;;;;;;;;4.10;92.00;;;;;;6277283;22;19907;-87
2022/04/04 00:47:42;;;;;;;;;;;4.10;92.00;;;;;;6266198;22;19941;-85
2022/04/04 00:50:08;;;;;;;;;;;4.10;92.00;;;;;;6250855;22;19903;-85
2022/04/04 00:52:33;;;;;;;;;;;4.10;92.00;;;;;;6251671;22;20207;-85
2022/04/04 00:55:01;;;;;;;;;;;4.10;92.00;;;;;;6252417;22;19929;-86
2022/04/04 00:57:27;;;;;;;;;;;4.20;92.00;;;;;;6252524;22;20374;-85
2022/04/04 00:59:53;;;;;;;;;;;4.10;92.00;;;;;;6279834;22;19907;-87
2022/04/04 01:02:19;;;;;;;;;;;4.10;92.00;;;;;;6252698;22;19957;-85
2022/04/04 01:04:44;;;;;;;;;;;4.10;92.00;;;;;;6252371;22;19910;-85
2022/04/04 01:07:10;;;;;;;;;;;4.10;92.00;;;;;;6252779;22;19911;-86
2022/04/04 01:09:38;;;;;;;;;;;4.10;92.10;;;;;;6252784;22;20263;-86
2022/04/04 01:12:11;;;;;;;;;;;4.10;92.10;;;;;;6227483;22;19943;-87
2022/04/04 01:14:48;;;;;;;;;;;4.10;92.10;;;;;;6246688;22;20036;-86
2022/04/04 01:17:14;;;;;;;;;;;4.10;92.10;;;;;;6252469;22;19907;-86
2022/04/04 01:19:42;;;;;;;;;;;4.10;92.10;;;;;;6252794;22;19957;-86
2022/04/04 01:22:09;;;;;;;;;;;4.00;92.10;;;;;;6252899;22;20325;-86
2022/04/04 01:24:37;;;;;;;;;;;4.00;92.10;;;;;;6252743;22;19945;-85
2022/04/04 01:27:03;;;;;;;;;;;4.00;92.10;;;;;;6279529;22;19904;-85
2022/04/04 01:29:31;;;;;;;;;;;4.00;92.10;;;;;;6252583;22;19977;-85
2022/04/04 01:32:06;;;;;;;;;;;4.00;92.20;;;;;;6279915;22;19903;-86
2022/04/04 01:34:34;;;;;;;;;;;4.00;92.10;;;;;;6253270;22;19938;-86
2022/04/04 01:37:00;;;;;;;;;;;4.00;92.20;;;;;;6252731;22;19982;-85
2022/04/04 01:39:38;;;;;;;;;;;;;;;;;;;;;
2022/04/04 01:42:04;;;;;;;;;;;4.00;92.10;;;;;;6279798;22;19994;-86
2022/04/04 01:44:33;;;;;;;;;;;4.00;92.00;;;;;;6252590;22;19907;-85
2022/04/04 01:46:58;;;;;;;;;;;4.00;92.00;;;;;;6251891;22;19923;-86
2022/04/04 01:49:24;;;;;;;;;;;4.00;92.00;;;;;;6252509;22;19903;-86
2022/04/04 01:51:52;;;;;;;;;;;4.00;92.00;;;;;;6252803;22;20217;-85
2022/04/04 01:54:18;;;;;;;;;;;4.10;92.00;;;;;;6279814;22;20006;-86
2022/04/04 01:56:44;;;;;;;;;;;4.00;91.90;;;;;;6252336;22;19907;-86
2022/04/04 01:59:09;;;;;;;;;;;4.00;91.90;;;;;;6253471;22;19911;-87
2022/04/04 02:01:35;;;;;;;;;;;4.10;91.90;;;;;;6270771;22;19911;-86
2022/04/04 02:04:08;;;;;;;;;;;4.00;91.80;;;;;;6280039;22;19915;-86
2022/04/04 02:06:34;;;;;;;;;;;4.00;91.80;;;;;;6279828;22;19975;-87
2022/04/04 02:09:02;;;;;;;;;;;4.10;91.80;;;;;;6304840;22;19907;-80
2022/04/04 02:11:28;;;;;;;;;;;4.10;91.70;;;;;;6253377;22;19977;-86
2022/04/04 02:13:57;;;;;;;;;;;4.10;91.70;;;;;;6252885;22;19903;-86
2022/04/04 02:16:25;;;;;;;;;;;4.10;91.70;;;;;;6252513;22;19903;-86
2022/04/04 02:18:53;;;;;;;;;;;4.10;91.60;;;;;;6252543;22;19990;-86
2022/04/04 02:21:26;;;;;;;;;;;4.20;91.60;;;;;;6251835;22;19907;-85
2022/04/04 02:23:54;;;;;;;;;;;4.20;91.50;;;;;;6252339;22;19926;-86
2022/04/04 02:26:20;;;;;;;;;;;4.20;91.50;;;;;;6251553;22;19915;-85
2022/04/04 02:28:46;;;;;;;;;;;4.20;91.40;;;;;;6251995;22;20265;-86
2022/04/04 02:31:12;;;;;;;;;;;4.20;91.40;;;;;;6252148;22;19903;-86
2022/04/04 02:33:38;;;;;;;;;;;4.30;91.40;;;;;;6251992;22;19903;-86
2022/04/04 02:36:03;;;;;;;;;;;4.30;91.30;;;;;;6252340;22;20293;-85
2022/04/04 02:38:29;;;;;;;;;;;4.30;91.20;;;;;;6252013;22;19982;-86
2022/04/04 02:41:00;;;;;;;;;;;4.30;91.20;;;;;;6252392;22;19907;-86
2022/04/04 02:43:28;;;;;;;;;;;4.30;91.10;;;;;;6251813;22;19957;-86
2022/04/04 02:45:59;;;;;;;;;;;4.30;91.10;;;;;;6226774;22;19954;-86
2022/04/04 02:48:25;;;;;;;;;;;4.30;91.10;;;;;;6251459;22;19903;-86
2022/04/04 02:50:51;;;;;;;;;;;4.30;91.00;;;;;;6252512;22;19982;-86
2022/04/04 02:53:20;;;;;;;;;;;4.30;90.90;;;;;;6251746;22;20026;-86
2022/04/04 02:58:29;;;;;;;;;;;4.30;90.90;;;;;;6278637;22;19913;-86
2022/04/04 03:00:55;;;;;;;;;;;4.30;90.90;;;;;;6252050;22;19986;-86
2022/04/04 03:03:21;;;;;;;;;;;4.30;90.90;;;;;;6251612;22;19903;-86
2022/04/04 03:05:48;;;;;;;;;;;4.30;90.90;;;;;;6251944;22;20310;-85
2022/04/04 03:08:14;;;;;;;;;;;4.30;90.90;;;;;;6251665;22;19904;-86
2022/04/04 03:10:44;;;;;;;;;;;4.30;90.90;;;;;;6251859;22;19952;-86
2022/04/04 03:13:13;;;;;;;;;;;4.40;90.90;;;;;;6252248;22;19907;-86
2022/04/04 03:15:39;;;;;;;;;;;4.30;90.70;;;;;;6251564;22;19910;-86
2022/04/04 03:18:07;;;;;;;;;;;4.40;90.80;;;;;;6251908;22;19907;-86
2022/04/04 03:20:36;;;;;;;;;;;4.40;90.80;;;;;;6252029;22;20340;-86
2022/04/04 03:23:06;;;;;;;;;;;4.40;90.80;;;;;;6279194;22;19923;-86
2022/04/04 03:25:34;;;;;;;;;;;4.40;90.70;;;;;;6261238;22;19935;-86
2022/04/04 03:28:00;;;;;;;;;;;4.40;90.80;;;;;;6253268;22;19934;-85
2022/04/04 03:30:29;;;;;;;;;;;4.40;90.80;;;;;;6279299;22;21362;-88
2022/04/04 03:32:57;;;;;;;;;;;4.40;90.70;;;;;;6276835;22;19959;-86
2022/04/04 03:35:23;;;;;;;;;;;4.40;90.70;;;;;;6276779;22;19918;-87
2022/04/04 03:37:53;;;;;;;;;;;4.40;90.70;;;;;;6272973;22;19898;-86
2022/04/04 03:40:20;;;;;;;;;;;4.40;90.70;;;;;;6251892;22;20211;-86
2022/04/04 03:42:46;;;;;;;;;;;4.50;90.70;;;;;;6278463;22;19949;-86
2022/04/04 03:45:16;;;;;;;;;;;4.50;90.70;;;;;;6251263;22;19903;-85
2022/04/04 03:47:42;;;;;;;;;;;4.50;90.70;;;;;;6250664;22;20247;-85
2022/04/04 03:50:08;;;;;;;;;;;4.40;90.70;;;;;;6251118;22;20334;-86
2022/04/04 03:52:34;;;;;;;;;;;4.40;90.70;;;;;;6251266;22;19903;-86
2022/04/04 03:55:07;;;;;;;;;;;4.50;90.70;;;;;;6251609;22;19913;-85
2022/04/04 03:57:33;;;;;;;;;;;4.40;90.60;;;;;;6250987;22;19941;-86
2022/04/04 03:59:59;;;;;;;;;;;4.40;90.70;;;;;;6251471;22;19907;-86
2022/04/04 04:02:28;;;;;;;;;;;4.50;90.70;;;;;;6251588;22;20289;-86
2022/04/04 04:04:55;;;;;;;;;;;4.40;90.60;;;;;;6251204;22;19953;-86
2022/04/04 04:07:27;;;;;;;;;;;4.50;90.60;;;;;;6226568;22;19907;-86
2022/04/04 04:09:53;;;;;;;;;;;4.50;90.60;;;;;;6225875;22;19982;-86
2022/04/04 04:12:21;;;;;;;;;;;4.50;90.60;;;;;;6225766;22;20009;-86
2022/04/04 04:14:48;;;;;;;;;;;4.50;90.60;;;;;;6251128;22;19907;-86
2022/04/04 04:17:21;;;;;;;;;;;4.50;90.80;;;;;;6250983;22;19908;-86
2022/04/04 04:22:33;;;;;;;;;;;4.50;90.60;;;;;;6277860;22;19986;-86
2022/04/04 04:25:01;;;;;;;;;;;4.50;90.60;;;;;;6278200;22;19910;-85
2022/04/04 04:27:27;;;;;;;;;;;4.60;90.60;;;;;;6277185;22;19909;-86
2022/04/04 04:29:53;;;;;;;;;;;4.60;90.60;;;;;;6226011;22;19974;-86
2022/04/04 04:32:24;;;;;;;;;;;4.60;90.90;;;;;;6251603;22;19903;-85
2022/04/04 04:34:50;;;;;;;;;;;4.50;90.60;;;;;;6226584;22;19973;-85
2022/04/04 04:37:21;;;;;;;;;;;4.60;90.60;;;;;;6250967;22;20210;-86
2022/04/04 04:39:55;;;;;;;;;;;4.60;90.60;;;;;;6278154;22;19914;-87
2022/04/04 04:42:34;;;;;;;;;;;4.60;90.60;;;;;;6227345;22;19912;-88
2022/04/04 04:45:22;;;;;;;;;;;4.60;90.60;;;;;;6227255;22;20044;-87
2022/04/04 04:48:11;;;;;;;;;;;4.60;90.60;;;;;;6250857;22;19942;-87
2022/04/04 04:50:41;;;;;;;;;;;4.60;90.50;;;;;;6267760;22;19897;-88
2022/04/04 04:53:12;;;;;;;;;;;4.70;90.60;;;;;;6278893;22;19935;-85
2022/04/04 04:55:40;;;;;;;;;;;4.70;90.60;;;;;;6278508;22;19891;-86
2022/04/04 04:58:08;;;;;;;;;;;4.70;90.60;;;;;;6252821;22;19900;-86
2022/04/04 05:00:37;;;;;;;;;;;4.70;90.60;;;;;;6273154;22;19903;-87
2022/04/04 05:05:59;;;;;;;;;;;4.70;90.60;;;;;;6278083;22;20245;-87
2022/04/04 05:08:27;;;;;;;;;;;4.80;90.70;;;;;;6251110;22;19907;-86
2022/04/04 05:10:55;;;;;;;;;;;4.80;90.70;;;;;;6251586;22;20297;-88
2022/04/04 05:13:21;;;;;;;;;;;4.80;90.70;;;;;;6226353;22;20675;-85
2022/04/04 05:15:47;;;;;;;;;;;4.80;91.00;;;;;;6246280;22;19903;-87
2022/04/04 05:18:16;;;;;;;;;;;4.80;90.80;;;;;;6249762;22;19914;-86
2022/04/04 05:20:46;;;;;;;;;;;4.80;90.80;;;;;;6250517;22;19915;-84
2022/04/04 05:23:22;;;;;;;;;;;4.80;90.80;;;;;;6225645;22;19942;-86
2022/04/04 05:25:50;;;;;;;;;;;4.80;90.80;;;;;;6225358;22;19914;-86
2022/04/04 05:28:18;;;;;;;;;;;4.80;90.80;;;;;;6250661;22;19907;-88
2022/04/04 05:31:07;;;;;;;;;;;;;;;;;;;;;
2022/04/04 05:33:36;;;;;;;;;;;4.90;90.90;;;;;;6276997;22;19970;-87
2022/04/04 05:36:06;;;;;;;;;;;4.90;90.80;;;;;;6249661;22;19907;-87
2022/04/04 05:38:50;;;;;;;;;;;4.90;90.80;;;;;;6225475;22;19911;-90
2022/04/04 05:41:21;;;;;;;;;;;5.00;90.80;;;;;;6230357;22;19918;-87
2022/04/04 05:44:10;;;;;;;;;;;5.00;90.80;;;;;;6251947;22;19903;-89
2022/04/04 05:46:35;;;;;;;;;;;5.10;90.80;;;;;;6251541;22;20660;-88
2022/04/04 05:49:23;;;;;;;;;;;5.10;90.80;;;;;;6251516;22;19930;-88
2022/04/04 05:51:56;;;;;;;;;;;5.20;90.80;;;;;;6251895;22;19953;-88
2022/04/04 05:54:22;;;;;;;;;;;5.10;90.70;;;;;;6250690;22;19978;-88
2022/04/04 05:56:58;;;;;;;;;;;5.20;90.70;;;;;;6251432;22;20238;-88
2022/04/04 05:59:33;;;;;;;;;;;5.20;90.70;;;;;;6251990;22;19926;-86
2022/04/04 06:02:08;;;;;;;;;;;5.20;90.70;;;;;;6227164;22;20276;-87
2022/04/04 06:04:44;;;;;;;;;;;5.30;90.70;;;;;;6228638;22;19907;-90
2022/04/04 06:07:12;;;;;;;;;;;5.30;90.70;;;;;;6251505;22;19904;-88
2022/04/04 06:09:45;;;;;;;;;;;5.30;90.60;;;;;;6225745;22;19911;-86
2022/04/04 06:12:14;;;;;;;;;;;5.40;90.70;;;;;;6255984;22;19982;-86
2022/04/04 06:15:00;;;;;;;;;;;5.40;90.60;;;;;;6260565;22;19987;-87
2022/04/04 06:17:54;;;;;;;;;;;5.40;90.60;;;;;;6275160;22;19919;-86
2022/04/04 06:20:30;;;;;;;;;;;5.40;90.60;;;;;;6277412;22;19955;-86
2022/04/04 06:23:06;;;;;;;;;;;5.40;90.50;;;;;;6299922;22;20317;-87
2022/04/04 06:25:34;;;;;;;;;;;5.50;90.50;;;;;;6268752;22;19910;-86
2022/04/04 06:28:03;;;;;;;;;;;5.50;90.50;;;;;;6258765;22;20302;-87
2022/04/04 06:30:31;;;;;;;;;;;5.60;90.50;;;;;;6252048;22;19907;-86
2022/04/04 06:33:02;;;;;;;;;;;5.60;90.50;;;;;;6250936;22;20071;-85
2022/04/04 06:35:28;;;;;;;;;;;5.70;90.50;;;;;;6277842;22;20300;-86
2022/04/04 06:37:53;;;;;;;;;;;5.70;90.30;;;;;;6224860;22;19912;-86
2022/04/04 06:40:19;;;;;;;;;;;5.70;90.20;;;;;;6251626;22;19907;-86
2022/04/04 06:42:45;;;;;;;;;;;5.80;90.30;;;;;;6250114;22;20384;-86
2022/04/04 06:45:17;;;;;;;;;;;5.80;90.20;;;;;;6251386;22;19907;-85
2022/04/04 06:47:45;;;;;;;;;;;5.80;90.10;;;;;;6251237;22;19915;-86
2022/04/04 06:50:13;;;;;;;;;;;5.90;90.00;;;;;;6250811;22;20300;-85
2022/04/04 06:52:42;;;;;;;;;;;5.90;90.00;;;;;;6238279;22;19903;-89
2022/04/04 06:55:20;;;;;;;;;;;5.90;90.00;;;;;;6239908;22;19919;-93
2022/04/04 06:57:53;;;;;;;;;;;6.00;89.70;;;;;;6212369;22;19950;-89
2022/04/04 07:00:23;;;;;;;;;;;6.00;89.70;;;;;;6274257;22;19990;-87
2022/04/04 07:02:58;;;;;;;;;;;6.00;89.20;;;;;;6250257;22;19942;-88
2022/04/04 07:05:24;;;;;;;;;;;6.10;88.60;;;;;;6250596;22;19962;-87
2022/04/04 07:07:52;;;;;;;;;;;6.10;89.20;;;;;;6249559;22;20324;-87
2022/04/04 07:10:32;;;;;;;;;;;6.10;88.40;;;;;;6249664;22;19992;-89
2022/04/04 07:13:00;;;;;;;;;;;6.10;88.40;;;;;;6250622;22;19926;-86
2022/04/04 07:15:31;;;;;;;;;;;6.20;88.50;;;;;;6250685;22;20012;-87
2022/04/04 07:17:59;;;;;;;;;;;6.20;88.40;;;;;;6226089;22;20313;-88
2022/04/04 07:20:25;;;;;;;;;;;6.30;88.00;;;;;;6250550;22;20353;-87
2022/04/04 07:22:51;;;;;;;;;;;6.30;88.00;;;;;;6250459;22;19907;-87
2022/04/04 07:25:28;;;;;;;;;;;6.40;88.00;;;;;;6251486;22;19910;-87
2022/04/04 07:27:58;;;;;;;;;;;6.40;87.80;;;;;;6226643;22;19914;-87
2022/04/04 07:30:36;;;;;;;;;;;;;;;;;;;;;
2022/04/04 07:33:15;;;;;;;;;;;6.50;87.80;;;;;;6278455;22;19998;-86
2022/04/04 07:35:43;;;;;;;;;;;6.50;87.80;;;;;;6251053;22;19945;-87
2022/04/04 07:38:18;;;;;;;;;;;6.60;88.10;;;;;;6250808;22;19956;-87
2022/04/04 07:40:44;;;;;;;;;;;6.60;88.00;;;;;;6251505;22;19907;-87
2022/04/04 07:43:11;;;;;;;;;;;6.70;88.00;;;;;;6257841;22;19914;-85
2022/04/04 07:45:37;;;;;;;;;;;6.70;88.20;;;;;;6277804;22;19891;-88
2022/04/04 07:48:03;;;;;;;;;;;6.80;88.30;;;;;;6278766;22;19911;-87
2022/04/04 07:50:30;;;;;;;;;;;6.80;88.30;;;;;;6277225;22;19908;-87
2022/04/04 07:52:58;;;;;;;;;;;6.80;88.50;;;;;;6266330;22;19931;-86
2022/04/04 07:55:26;;;;;;;;;;;6.80;88.70;;;;;;6226673;22;20331;-87
2022/04/04 07:57:52;;;;;;;;;;;6.80;89.00;;;;;;6250785;22;20044;-86
2022/04/04 08:00:42;;;;;;;;;;;6.90;89.20;;;;;;6251097;22;19943;-86
2022/04/04 08:03:19;;;;;;;;;;;6.90;89.40;;;;;;6276079;22;19982;-87
2022/04/04 08:05:50;;;;;;;;;;;6.90;89.50;;;;;;6250310;22;19903;-86
2022/04/04 08:08:18;;;;;;;;;;;6.90;89.70;;;;;;6225250;22;19914;-87
2022/04/04 08:10:44;;;;;;;;;;;7.00;90.00;;;;;;6250428;22;19903;-86
2022/04/04 08:13:11;;;;;;;;;;;7.00;90.20;;;;;;6249878;22;20313;-86
2022/04/04 08:15:39;;;;;;;;;;;7.00;90.40;;;;;;6249893;22;19939;-87
2022/04/04 08:18:07;;;;;;;;;;;7.00;90.50;;;;;;6249591;22;20306;-86
2022/04/04 08:20:34;;;;;;;;;;;6.90;90.60;;;;;;6249853;22;19991;-87
2022/04/04 08:23:04;;;;;;;;;;;7.00;90.70;;;;;;6276882;22;19978;-87
2022/04/04 08:25:30;;;;;;;;;;;7.00;90.80;;;;;;6225447;22;20051;-87
2022/04/04 08:28:04;;;;;;;;;;;7.00;90.90;;;;;;6250007;22;20325;-87
2022/04/04 08:30:32;;;;;;;;;;;7.00;90.90;;;;;;6247555;22;19910;-86
2022/04/04 08:32:58;;;;;;;;;;;7.00;90.90;;;;;;6249459;22;19910;-88
2022/04/04 08:35:27;;;;;;;;;;;7.00;90.90;;;;;;6265970;22;19934;-91
2022/04/04 08:38:12;;;;;;;;;;;7.00;90.90;;;;;;6245483;22;20268;-87
2022/04/04 08:40:45;;;;;;;;;;;7.00;90.80;;;;;;6221314;22;19907;-87
2022/04/04 08:43:19;;;;;;;;;;;7.00;90.80;;;;;;6248123;22;20332;-87
2022/04/04 08:48:52;;;;;;;;;;;7.00;90.90;;;;;;6261445;22;19915;-88
2022/04/04 08:51:23;;;;;;;;;;;7.00;90.90;;;;;;6249370;22;20314;-89
2022/04/04 08:57:15;;;;;;;;;;;7.10;90.90;;;;;;6222468;22;19973;-89
2022/04/04 08:59:50;;;;;;;;;;;7.10;90.80;;;;;;6251065;22;20332;-88
2022/04/04 09:02:34;;;;;;;;;;;;;;;;;;;;;
2022/04/04 09:05:06;;;;;;;;;;;7.20;90.70;;;;;;6252887;22;19986;-87
2022/04/04 09:07:54;;;;;;;;;;;7.20;90.60;;;;;;6224939;22;19907;-87
2022/04/04 09:10:29;;;;;;;;;;;7.20;90.50;;;;;;6250428;22;19904;-87
2022/04/04 09:13:06;;;;;;;;;;;7.20;90.50;;;;;;6269904;22;19911;-91
2022/04/04 09:16:00;;;;;;;;;;;7.20;90.60;;;;;;6279913;22;19947;-92
2022/04/04 09:18:35;;;;;;;;;;;7.20;90.70;;;;;;6279702;22;19914;-89
2022/04/04 09:24:06;;;;;;;;;;;;;;;;;;;;;
2022/04/04 09:26:38;;;;;;;;;;;7.20;91.30;;;;;;6279792;22;19978;-88
2022/04/04 09:29:27;;;;;;;;;;;7.10;91.60;;;;;;6251445;22;20221;-89
2022/04/04 09:31:59;;;;;;;;;;;7.10;91.80;;;;;;6251431;22;20339;-88
2022/04/04 09:34:30;;;;;;;;;;;7.10;91.90;;;;;;6248197;22;20256;-88
2022/04/04 09:37:03;;;;;;;;;;;7.10;92.00;;;;;;6251435;22;19903;-86
2022/04/04 09:39:38;;;;;;;;;;;7.00;92.20;;;;;;6252279;22;19934;-89
2022/04/04 09:42:20;;;;;;;;;;;7.00;92.30;;;;;;6251962;22;20302;-87
2022/04/04 09:44:58;;;;;;;;;;;7.10;92.50;;;;;;6252124;22;20269;-87
2022/04/04 09:47:44;;;;;;;;;;;7.10;92.60;;;;;;6251496;22;20240;-87
2022/04/04 09:50:27;;;;;;;;;;;7.00;92.70;;;;;;6224705;22;20199;-86
2022/04/04 09:52:57;;;;;;;;;;;7.00;92.90;;;;;;6251346;22;19910;-88
2022/04/04 09:55:30;;;;;;;;;;;7.00;93.00;;;;;;6251585;22;19907;-86
2022/04/04 09:58:06;;;;;;;;;;;7.00;93.20;;;;;;6251078;22;19914;-88
2022/04/04 10:00:43;;;;;;;;;;;7.00;93.30;;;;;;6278561;22;19907;-87
2022/04/04 10:03:12;;;;;;;;;;;7.00;93.30;;;;;;6250961;22;19903;-88
2022/04/04 10:05:44;;;;;;;;;;;7.10;93.40;;;;;;6249969;22;19926;-86
2022/04/04 10:08:17;;;;;;;;;;;7.10;93.70;;;;;;6250317;22;19907;-87
2022/04/04 10:10:43;;;;;;;;;;;7.00;93.90;;;;;;6251317;22;20393;-87
2022/04/04 10:13:10;;;;;;;;;;;7.00;94.10;;;;;;6250896;22;19903;-87
2022/04/04 10:15:39;;;;;;;;;;;7.00;94.10;;;;;;6250833;22;19930;-88
2022/04/04 10:18:07;;;;;;;;;;;7.00;94.20;;;;;;6250939;22;19956;-87
2022/04/04 10:20:36;;;;;;;;;;;7.00;94.40;;;;;;6278968;22;19943;-88
2022/04/04 10:23:06;;;;;;;;;;;7.00;94.40;;;;;;6224995;22;19918;-88
2022/04/04 10:25:33;;;;;;;;;;;7.00;94.50;;;;;;6246434;22;19910;-87
2022/04/04 10:28:01;;;;;;;;;;;7.00;94.60;;;;;;6245423;22;19903;-86
2022/04/04 10:30:32;;;;;;;;;;;7.00;94.70;;;;;;6251150;22;19903;-89
2022/04/04 10:32:57;;;;;;;;;;;7.00;94.70;;;;;;6277930;22;19903;-87
2022/04/04 10:36:07;;;;;;;;;;;7.00;94.80;;;;;;6251423;22;19903;-88
2022/04/04 10:38:48;;;;;;;;;;;;;;;;;;;;;
2022/04/04 10:41:18;;;;;;;;;;;7.10;94.90;;;;;;6266797;22;19950;-91
2022/04/04 10:43:52;;;;;;;;;;;7.10;94.90;;;;;;6279769;22;19900;-92
2022/04/04 10:46:23;;;;;;;;;;;7.10;95.00;;;;;;6254621;22;19914;-91
2022/04/04 10:48:53;;;;;;;;;;;7.10;95.10;;;;;;6254514;22;19898;-88
2022/04/04 10:51:18;;;;;;;;;;;7.20;95.10;;;;;;6261025;22;20026;-87
2022/04/04 10:54:18;;;;;;;;;;;7.20;95.20;;;;;;6252218;22;20310;-88
2022/04/04 10:57:24;;;;;;;;;;;7.20;95.20;;;;;;6252362;22;19974;-88
2022/04/04 10:59:56;;;;;;;;;;;7.20;95.30;;;;;;6249513;22;20336;-89
2022/04/04 11:02:24;;;;;;;;;;;7.20;95.30;;;;;;6251947;22;19899;-88
2022/04/04 11:07:41;;;;;;;;;;;7.20;95.50;;;;;;6277786;22;19926;-85
2022/04/04 11:10:08;;;;;;;;;;;7.20;95.50;;;;;;6225937;22;20311;-86
2022/04/04 11:12:53;;;;;;;;;;;7.10;95.70;;;;;;6250893;22;20301;-86
2022/04/04 11:15:41;;;;;;;;;;;7.10;95.70;;;;;;6250501;22;20225;-85
2022/04/04 11:18:09;;;;;;;;;;;7.10;96.10;;;;;;6277674;22;20012;-87
2022/04/04 11:20:53;;;;;;;;;;;7.10;95.90;;;;;;6251308;22;19994;-87
2022/04/04 11:23:24;;;;;;;;;;;7.10;95.90;;;;;;6250995;22;19909;-87
2022/04/04 11:25:52;;;;;;;;;;;7.10;96.00;;;;;;6250501;22;19903;-86
2022/04/04 11:28:24;;;;;;;;;;;7.10;96.00;;;;;;6277470;22;19903;-85
2022/04/04 11:30:53;;;;;;;;;;;7.10;96.10;;;;;;6277711;22;20205;-85
2022/04/04 11:33:22;;;;;;;;;;;7.10;96.20;;;;;;6250095;22;19903;-85
2022/04/04 11:35:49;;;;;;;;;;;7.20;96.20;;;;;;6277132;22;19907;-86
2022/04/04 11:38:26;;;;;;;;;;;7.20;96.20;;;;;;6277140;22;19907;-86
2022/04/04 11:40:55;;;;;;;;;;;7.20;96.30;;;;;;6250184;22;19907;-86
2022/04/04 11:43:26;;;;;;;;;;;7.20;96.40;;;;;;6277777;22;19939;-85
2022/04/04 11:45:53;;;;;;;;;;;7.20;96.40;;;;;;6250208;22;19903;-86
2022/04/04 11:48:26;;;;;;;;;;;7.20;96.50;;;;;;6249695;22;19938;-86
2022/04/04 11:50:56;;;;;;;;;;;7.30;96.60;;;;;;6250957;22;19931;-86
2022/04/04 11:53:25;;;;;;;;;;;7.30;96.70;;;;;;6250225;22;19938;-86
2022/04/04 11:56:08;;;;;;;;;;;7.30;96.80;;;;;;6250853;22;19990;-88
2022/04/04 11:58:37;;;;;;;;;;;7.30;96.90;;;;;;6250333;22;19907;-86
2022/04/04 12:01:06;;;;;;;;;;;7.30;96.90;;;;;;6250876;22;19915;-86
2022/04/04 12:03:40;;;;;;;;;;;7.30;97.00;;;;;;6250626;22;19903;-86
2022/04/04 12:06:14;;;;;;;;;;;7.30;97.10;;;;;;6250708;22;19907;-85
2022/04/04 12:08:42;;;;;;;;;;;7.30;97.20;;;;;;6252195;22;20233;-86
2022/04/04 12:11:10;;;;;;;;;;;7.30;97.30;;;;;;6267863;22;19918;-90
2022/04/04 12:13:49;;;;;;;;;;;7.40;97.20;;;;;;6303918;22;19896;-85
2022/04/04 12:16:16;;;;;;;;;;;7.40;97.30;;;;;;6277519;22;19896;-87
2022/04/04 12:18:59;;;;;;;;;;;7.30;97.20;;;;;;6301172;22;19915;-81
2022/04/04 12:21:25;;;;;;;;;;;7.40;97.30;;;;;;6256025;22;19918;-88
2022/04/04 12:26:36;;;;;;;;;;;7.40;97.30;;;;;;6277727;22;19911;-86
2022/04/04 12:29:32;;;;;;;;;;;7.40;97.60;;;;;;6250420;22;19903;-86
2022/04/04 12:31:59;;;;;;;;;;;7.40;97.60;;;;;;6276274;22;19949;-85
2022/04/04 12:34:30;;;;;;;;;;;7.40;97.60;;;;;;6250048;22;19925;-88
2022/04/04 12:37:01;;;;;;;;;;;7.40;97.60;;;;;;6224937;22;19907;-85
2022/04/04 12:39:27;;;;;;;;;;;7.40;97.80;;;;;;6249625;22;19907;-86
2022/04/04 12:41:55;;;;;;;;;;;7.40;97.70;;;;;;6249973;22;19921;-86
2022/04/04 12:44:21;;;;;;;;;;;7.50;97.70;;;;;;6250081;22;19957;-86
2022/04/04 12:46:47;;;;;;;;;;;7.40;97.90;;;;;;6276800;22;19985;-85
2022/04/04 12:49:14;;;;;;;;;;;7.50;98.00;;;;;;6250663;22;20277;-85
2022/04/04 12:51:50;;;;;;;;;;;7.40;97.90;;;;;;6252192;22;19910;-86
2022/04/04 12:54:23;;;;;;;;;;;7.50;97.90;;;;;;6251494;22;19904;-85
2022/04/04 12:56:52;;;;;;;;;;;7.50;98.00;;;;;;6251407;22;19903;-89
2022/04/04 12:59:26;;;;;;;;;;;7.40;98.00;;;;;;6251382;22;19949;-87
2022/04/04 13:02:10;;;;;;;;;;;7.40;98.00;;;;;;6279198;22;19946;-86
2022/04/04 13:04:36;;;;;;;;;;;7.50;98.10;;;;;;6252179;22;19949;-86
2022/04/04 13:07:02;;;;;;;;;;;7.50;98.20;;;;;;6252078;22;19907;-86
2022/04/04 13:09:29;;;;;;;;;;;7.40;98.30;;;;;;6251736;22;19978;-87
2022/04/04 13:12:02;;;;;;;;;;;7.40;98.40;;;;;;6252234;22;19926;-87
2022/04/04 13:14:45;;;;;;;;;;;7.40;98.40;;;;;;6278820;22;19907;-86
2022/04/04 13:17:13;;;;;;;;;;;7.40;98.40;;;;;;6251949;22;19982;-91
2022/04/04 13:19:57;;;;;;;;;;;7.50;98.40;;;;;;6251895;22;19907;-86
2022/04/04 13:22:26;;;;;;;;;;;7.40;98.40;;;;;;6226651;22;19957;-87
2022/04/04 13:24:54;;;;;;;;;;;7.40;98.50;;;;;;6252037;22;19904;-86
2022/04/04 13:27:20;;;;;;;;;;;7.40;98.60;;;;;;6252024;22;19907;-88
2022/04/04 13:30:06;;;;;;;;;;;7.40;98.50;;;;;;6252122;22;19914;-87
2022/04/04 13:32:34;;;;;;;;;;;7.40;98.60;;;;;;6251472;22;19938;-87
2022/04/04 13:35:02;;;;;;;;;;;7.40;98.70;;;;;;6252437;22;19903;-86
2022/04/04 13:37:43;;;;;;;;;;;7.40;98.70;;;;;;6256076;22;20314;-87
2022/04/04 13:40:31;;;;;;;;;;;7.40;98.70;;;;;;6276414;22;19892;-90
2022/04/04 13:43:03;;;;;;;;;;;7.40;98.80;;;;;;6304743;22;19903;-85
2022/04/04 13:45:29;;;;;;;;;;;7.50;98.80;;;;;;6278468;22;19939;-91
2022/04/04 13:47:57;;;;;;;;;;;7.40;98.90;;;;;;6277948;22;19926;-86
2022/04/04 13:50:25;;;;;;;;;;;7.50;98.90;;;;;;6257783;22;19911;-86
2022/04/04 13:52:55;;;;;;;;;;;7.50;98.90;;;;;;6251998;22;19915;-86
2022/04/04 13:55:28;;;;;;;;;;;7.50;99.10;;;;;;6251874;22;19916;-86
2022/04/04 13:57:57;;;;;;;;;;;7.50;99.10;;;;;;6251713;22;19907;-86
2022/04/04 14:00:52;;;;;;;;;;;7.60;99.20;;;;;;6251309;22;19930;-85
2022/04/04 14:03:17;;;;;;;;;;;7.60;99.30;;;;;;6230508;22;19907;-86
2022/04/04 14:05:43;;;;;;;;;;;7.60;99.20;;;;;;6251408;22;19910;-87
2022/04/04 14:08:18;;;;;;;;;;;7.60;99.20;;;;;;6251789;22;19910;-87
2022/04/04 14:10:48;;;;;;;;;;;7.60;99.20;;;;;;6279153;22;19903;-87
2022/04/04 14:13:19;;;;;;;;;;;7.70;99.20;;;;;;6251295;22;20211;-86
2022/04/04 14:16:05;;;;;;;;;;;7.60;99.20;;;;;;6225427;22;19990;-87
2022/04/04 14:19:00;;;;;;;;;;;;;;;;;;;;;
2022/04/04 14:21:42;;;;;;;;;;;;;;;;;;;;;
2022/04/04 14:24:29;;;;;;;;;;;7.70;99.30;;;;;;6253564;22;20286;-86
2022/04/04 14:26:58;;;;;;;;;;;7.70;99.40;;;;;;6227383;22;20324;-87
2022/04/04 14:29:47;;;;;;;;;;;7.70;99.40;;;;;;6251055;22;19910;-91
2022/04/04 14:32:15;;;;;;;;;;;7.70;99.40;;;;;;6231095;22;20313;-88
2022/04/04 14:35:01;;;;;;;;;;;7.80;99.40;;;;;;6252246;22;19907;-87
2022/04/04 14:37:57;;;;;;;;;;;;;;;;;;;;;
2022/04/04 14:40:43;;;;;;;;;;;7.80;99.40;;;;;;6279746;22;19978;-89
2022/04/04 14:43:38;;;;;;;;;;;7.90;99.40;;;;;;6252350;22;19903;-88
2022/04/04 14:46:25;;;;;;;;;;;7.90;99.40;;;;;;6255996;22;19930;-90
2022/04/04 14:52:28;;;;;;;;;;;7.90;99.40;;;;;;6126778;23;20336;-89
2022/04/04 15:36:25;;;;;;;;;;;;;;;;;;;;;
2022/04/04 15:48:34;;;;;;;;;;;;;;;;;;;;;
2022/04/04 15:51:03;;;;;;;;;;;8.10;99.90;;;;;;6143046;23;19984;-90
2022/04/04 15:54:17;;;;;;;;;;;8.20;99.90;;;;;;6155603;23;19925;-91
2022/04/04 15:57:14;;;;;;;;;;;;;;;;;;;;;
2022/04/04 16:00:12;;;;;;;;;;;;;;;;;;;;;
2022/04/04 16:03:08;;;;;;;;;;;;;;;;;;;;;
2022/04/04 16:06:05;;;;;;;;;;;;;;;;;;;;;
2022/04/04 16:11:51;;;;;;;;;;;;;;;;;;;;;
2022/04/04 16:14:25;;;;;;;;;;;8.30;99.90;;;;;;6269894;22;19903;-89
2022/04/04 16:19:58;;;;;;;;;;;8.30;99.90;;;;;;6262550;22;20283;-89
2022/04/04 16:22:39;;;;;;;;;;;8.30;99.90;;;;;;6252364;22;20233;-88
2022/04/04 16:31:18;;;;;;;;;;;8.40;99.90;;;;;;6279043;22;19911;-88
2022/04/04 16:34:07;;;;;;;;;;;8.40;99.90;;;;;;6251293;22;19903;-89
2022/04/04 16:36:47;;;;;;;;;;;;;;;;;;;;;
2022/04/04 16:39:13;;;;;;;;;;;8.40;99.90;;;;;;6278369;22;19997;-87
2022/04/04 16:41:38;;;;;;;;;;;8.50;99.90;;;;;;6251786;22;19908;-87
2022/04/04 16:44:04;;;;;;;;;;;8.50;99.90;;;;;;6273508;22;19892;-87